createdAt,value
2022-11-13T00:02:12.881Z,102754.44
2022-11-13T00:04:56.711Z,102752.09
2022-11-13T00:07:38.550Z,102756.44
2022-11-13T00:10:20.551Z,102753.53
2022-11-13T00:13:02.481Z,102748.03
2022-11-13T00:15:44.912Z,102751.59
2022-11-13T00:18:27.344Z,102749.47
2022-11-13T00:21:15.464Z,102741.13
2022-11-13T00:23:58.110Z,102737.13
2022-11-13T00:26:40.190Z,102730.84
2022-11-13T00:29:22.258Z,102740.34
2022-11-13T00:32:04.358Z,102735.59
2022-11-13T00:34:47.988Z,102729.13
2022-11-13T00:37:32.018Z,102732.84
2022-11-13T00:40:14.495Z,102730.59
2022-11-13T00:42:56.514Z,102727.75
2022-11-13T00:45:38.659Z,102729.13
2022-11-13T00:48:21.885Z,102728.88
2022-11-13T00:51:05.116Z,102734.63
2022-11-13T00:53:48.846Z,102721.56
2022-11-13T00:56:31.020Z,102715.97
2022-11-13T00:59:13.402Z,102716.06
2022-11-13T01:01:55.350Z,102717.47
2022-11-13T01:04:37.450Z,102717.56
2022-11-13T01:07:19.569Z,102708.16
2022-11-13T01:10:03.329Z,102710.75
2022-11-13T01:12:45.741Z,102698.72
2022-11-13T01:15:28.135Z,102702.09
2022-11-13T01:18:10.810Z,102703.31
2022-11-13T01:20:53.599Z,102700.19
2022-11-13T01:23:36.511Z,102690.25
2022-11-13T01:26:22.967Z,102695.56
2022-11-13T01:29:07.138Z,102698.97
2022-11-13T01:31:49.035Z,102688.81
2022-11-13T01:34:31.087Z,102689.47
2022-11-13T01:37:13.075Z,102697.63
2022-11-13T01:39:55.287Z,102690.66
2022-11-13T01:42:38.879Z,102687.34
2022-11-13T01:46:07.770Z,102689.47
2022-11-13T01:48:54.461Z,102676.75
2022-11-13T01:51:41.384Z,102672.88
2022-11-13T01:54:27.578Z,102678.00
2022-11-13T01:57:10.125Z,102678.53
2022-11-13T02:00:00.530Z,102673.28
2022-11-13T02:02:42.486Z,102671.97
2022-11-13T02:05:24.643Z,102667.34
2022-11-13T02:08:07.059Z,102659.34
2022-11-13T02:10:49.729Z,102659.06
2022-11-13T02:13:31.739Z,102657.34
2022-11-13T02:16:16.599Z,102655.63
2022-11-13T02:18:59.355Z,102652.47
2022-11-13T02:21:52.016Z,102660.53
2022-11-13T02:24:43.350Z,102655.41
2022-11-13T02:27:37.634Z,102654.38
2022-11-13T02:30:27.194Z,102655.56
2022-11-13T02:33:24.929Z,102653.00
2022-11-13T02:36:09.662Z,102650.78
2022-11-13T02:38:53.734Z,102646.16
2022-11-13T02:41:38.507Z,102645.19
2022-11-13T02:44:20.676Z,102641.38
2022-11-13T02:47:03.017Z,102638.84
2022-11-13T02:49:45.262Z,102631.56
2022-11-13T02:52:27.670Z,102633.88
2022-11-13T02:55:11.081Z,102623.06
2022-11-13T02:57:54.475Z,102618.66
2022-11-13T03:00:36.737Z,102611.53
2022-11-13T03:03:41.076Z,102610.31
2022-11-13T03:06:21.199Z,102612.19
2022-11-13T03:09:03.393Z,102609.94
2022-11-13T03:11:45.707Z,102600.66
2022-11-13T03:14:29.214Z,102608.28
2022-11-13T03:17:11.393Z,102607.03
2022-11-13T03:19:53.433Z,102607.00
2022-11-13T03:22:35.665Z,102601.50
2022-11-13T03:25:17.741Z,102610.06
2022-11-13T03:28:00.134Z,102613.38
2022-11-13T03:30:43.478Z,102613.16
2022-11-13T03:33:26.557Z,102614.72
2022-11-13T03:36:09.444Z,102613.38
2022-11-13T03:38:51.954Z,102619.84
2022-11-13T03:41:34.120Z,102619.63
2022-11-13T03:44:16.535Z,102623.44
2022-11-13T03:47:00.266Z,102621.59
2022-11-13T03:49:42.337Z,102622.19
2022-11-13T03:52:24.492Z,102629.13
2022-11-13T03:55:07.549Z,102629.91
2022-11-13T03:57:49.819Z,102617.19
2022-11-13T04:00:32.399Z,102615.38
2022-11-13T04:03:16.022Z,102606.47
2022-11-13T04:05:58.001Z,102599.03
2022-11-13T04:08:40.109Z,102596.78
2022-11-13T04:11:22.026Z,102595.47
2022-11-13T04:14:04.053Z,102595.59
2022-11-13T04:16:46.440Z,102595.94
2022-11-13T04:19:29.796Z,102586.59
2022-11-13T04:22:12.537Z,102585.34
2022-11-13T04:24:54.568Z,102583.06
2022-11-13T04:27:37.397Z,102588.59
2022-11-13T04:30:21.810Z,102579.97
2022-11-13T04:33:04.154Z,102590.09
2022-11-13T04:35:48.523Z,102582.00
2022-11-13T04:38:31.588Z,102583.00
2022-11-13T04:41:32.471Z,102579.97
2022-11-13T04:44:14.965Z,102591.69
2022-11-13T04:46:56.649Z,102575.22
2022-11-13T04:49:38.433Z,102576.25
2022-11-13T04:52:21.765Z,102579.03
2022-11-13T04:55:04.123Z,102579.19
2022-11-13T04:57:46.453Z,102577.44
2022-11-13T05:00:28.367Z,102582.16
2022-11-13T05:03:10.586Z,102577.06
2022-11-13T05:05:52.974Z,102580.03
2022-11-13T05:08:36.912Z,102588.19
2022-11-13T05:11:19.054Z,102580.03
2022-11-13T05:14:03.660Z,102576.94
2022-11-13T05:16:46.109Z,102578.59
2022-11-13T05:19:28.002Z,102568.53
2022-11-13T05:22:10.585Z,102572.53
2022-11-13T05:24:54.067Z,102574.09
2022-11-13T05:27:36.221Z,102579.91
2022-11-13T05:30:18.578Z,102575.81
2022-11-13T05:33:00.679Z,102566.34
2022-11-13T05:35:42.734Z,102577.88
2022-11-13T05:38:24.652Z,102575.44
2022-11-13T05:41:10.795Z,102573.22
2022-11-13T05:43:58.175Z,102571.13
2022-11-13T05:46:41.382Z,102568.19
2022-11-13T05:49:23.474Z,102568.47
2022-11-13T05:52:05.645Z,102569.63
2022-11-13T05:54:47.729Z,102564.94
2022-11-13T05:57:31.267Z,102561.22
2022-11-13T06:00:15.346Z,102553.44
2022-11-13T06:02:57.583Z,102563.22
2022-11-13T06:05:40.248Z,102549.38
2022-11-13T06:08:22.443Z,102553.84
2022-11-13T06:11:07.365Z,102552.44
2022-11-13T06:13:52.167Z,102555.16
2022-11-13T06:16:38.055Z,102551.16
2022-11-13T06:19:20.493Z,102542.13
2022-11-13T06:22:02.346Z,102543.69
2022-11-13T06:24:44.493Z,102537.66
2022-11-13T06:27:26.432Z,102536.84
2022-11-13T06:30:12.447Z,102535.97
2022-11-13T06:32:55.368Z,102536.06
2022-11-13T06:35:37.350Z,102530.78
2022-11-13T06:38:19.819Z,102526.13
2022-11-13T06:41:02.022Z,102530.78
2022-11-13T06:43:44.998Z,102523.16
2022-11-13T06:46:30.207Z,102525.69
2022-11-13T06:49:12.155Z,102523.59
2022-11-13T06:51:54.634Z,102519.03
2022-11-13T06:54:36.759Z,102512.72
2022-11-13T06:57:18.831Z,102529.38
2022-11-13T07:00:01.262Z,102519.78
2022-11-13T07:02:44.705Z,102517.69
2022-11-13T07:05:26.954Z,102515.81
2022-11-13T07:08:09.189Z,102511.25
2022-11-13T07:10:55.777Z,102513.03
2022-11-13T07:13:39.894Z,102508.47
2022-11-13T07:16:22.149Z,102513.41
2022-11-13T07:19:06.619Z,102511.13
2022-11-13T07:21:49.071Z,102516.31
2022-11-13T07:24:30.846Z,102510.03
2022-11-13T07:27:13.354Z,102518.56
2022-11-13T07:29:59.493Z,102508.34
2022-11-13T07:32:44.149Z,102510.22
2022-11-13T07:35:27.243Z,102500.78
2022-11-13T07:38:09.552Z,102500.69
2022-11-13T07:40:51.822Z,102500.53
2022-11-13T07:43:33.811Z,102508.03
2022-11-13T07:46:15.860Z,102499.66
2022-11-13T07:48:58.022Z,102503.31
2022-11-13T07:51:41.677Z,102510.59
2022-11-13T07:54:23.808Z,102496.22
2022-11-13T07:57:05.749Z,102502.28
2022-11-13T07:59:48.095Z,102505.66
2022-11-13T08:02:30.279Z,102508.75
2022-11-13T08:05:12.180Z,102506.78
2022-11-13T08:07:55.894Z,102503.34
2022-11-13T08:10:38.018Z,102511.44
2022-11-13T08:13:20.097Z,102502.59
2022-11-13T08:16:03.161Z,102500.47
2022-11-13T08:18:44.920Z,102512.56
2022-11-13T08:21:26.933Z,102500.53
2022-11-13T08:24:11.348Z,102495.63
2022-11-13T08:26:53.567Z,102501.75
2022-11-13T08:29:37.431Z,102494.34
2022-11-13T08:32:22.563Z,102495.25
2022-11-13T08:35:04.730Z,102497.84
2022-11-13T08:37:46.861Z,102493.25
2022-11-13T08:40:30.388Z,102503.06
2022-11-13T08:43:12.721Z,102496.81
2022-11-13T08:45:55.825Z,102494.91
2022-11-13T08:48:37.775Z,102486.06
2022-11-13T08:51:19.971Z,102489.34
2022-11-13T08:54:02.106Z,102495.84
2022-11-13T08:56:51.534Z,102498.63
2022-11-13T08:59:37.871Z,102485.63
2022-11-13T09:02:20.521Z,102491.50
2022-11-13T09:05:02.583Z,102486.56
2022-11-13T09:07:45.017Z,102493.94
2022-11-13T09:10:28.234Z,102487.00
2022-11-13T09:13:12.826Z,102494.47
2022-11-13T09:15:54.883Z,102496.69
2022-11-13T09:18:37.354Z,102492.72
2022-11-13T09:21:19.956Z,102491.44
2022-11-13T09:24:02.261Z,102488.03
2022-11-13T09:26:44.687Z,102490.59
2022-11-13T09:29:28.902Z,102482.31
2022-11-13T09:32:11.507Z,102485.69
2022-11-13T09:34:53.504Z,102481.78
2022-11-13T09:37:35.624Z,102474.16
2022-11-13T09:40:30.054Z,102491.44
2022-11-13T09:43:31.767Z,102489.34
2022-11-13T09:46:21.823Z,102482.47
2022-11-13T09:49:15.954Z,102475.72
2022-11-13T09:52:06.391Z,102480.00
2022-11-13T09:54:49.117Z,102479.25
2022-11-13T09:57:44.296Z,102482.56
2022-11-13T10:00:26.407Z,102470.19
2022-11-13T10:03:54.016Z,102476.63
2022-11-13T10:06:43.342Z,102478.00
2022-11-13T10:09:38.318Z,102466.34
2022-11-13T10:12:22.341Z,102458.31
2022-11-13T10:15:07.193Z,102458.88
2022-11-13T10:17:56.869Z,102451.09
2022-11-13T10:20:44.591Z,102448.22
2022-11-13T10:23:31.528Z,102445.84
2022-11-13T10:26:17.249Z,102459.63
2022-11-13T10:29:07.430Z,102451.41
2022-11-13T10:31:53.559Z,102447.47
2022-11-13T10:34:36.137Z,102444.09
2022-11-13T10:37:31.853Z,102450.66
2022-11-13T10:40:26.298Z,102437.47
2022-11-13T10:43:15.733Z,102443.22
2022-11-13T10:46:00.165Z,102421.84
2022-11-13T10:48:42.317Z,102420.72
2022-11-13T10:51:27.637Z,102418.53
2022-11-13T10:54:28.740Z,102419.31
2022-11-13T10:57:30.222Z,102422.56
2022-11-13T11:00:27.336Z,102417.88
2022-11-13T11:03:10.897Z,102405.34
2022-11-13T11:06:03.958Z,102416.25
2022-11-13T11:08:47.044Z,102405.44
2022-11-13T11:11:48.459Z,102406.31
2022-11-13T11:14:36.353Z,102400.66
2022-11-13T11:17:22.749Z,102400.09
2022-11-13T11:20:18.117Z,102397.34
2022-11-13T11:23:10.519Z,102389.56
2022-11-13T11:25:58.697Z,102391.41
2022-11-13T11:28:48.952Z,102390.84
2022-11-13T11:31:38.741Z,102389.00
2022-11-13T11:34:27.863Z,102376.81
2022-11-13T11:37:15.895Z,102384.03
2022-11-13T11:40:05.596Z,102385.44
2022-11-13T11:42:55.506Z,102385.31
2022-11-13T11:45:42.429Z,102368.38
2022-11-13T11:48:31.006Z,102370.09
2022-11-13T11:51:24.883Z,102379.72
2022-11-13T11:54:30.412Z,102370.78
2022-11-13T11:57:34.434Z,102371.63
2022-11-13T12:00:19.985Z,102365.00
2022-11-13T12:03:48.249Z,102371.25
2022-11-13T12:06:44.662Z,102355.66
2022-11-13T12:09:31.307Z,102354.13
2022-11-13T12:12:26.038Z,102353.94
2022-11-13T12:15:18.202Z,102346.03
2022-11-13T12:18:10.709Z,102347.94
2022-11-13T12:21:04.056Z,102338.63
2022-11-13T12:24:30.094Z,102342.09
2022-11-13T12:27:26.849Z,102328.34
2022-11-13T12:30:19.006Z,102322.38
2022-11-13T12:33:24.854Z,102326.59
2022-11-13T12:36:12.322Z,102323.16
2022-11-13T12:39:04.549Z,102326.22
2022-11-13T12:41:51.589Z,102309.22
2022-11-13T12:44:48.471Z,102293.78
2022-11-13T12:47:30.582Z,102301.88
2022-11-13T12:50:31.780Z,102305.84
2022-11-13T12:53:27.745Z,102302.16
2022-11-13T12:56:19.212Z,102294.09
2022-11-13T13:02:34.025Z,102285.66
2022-11-13T13:05:30.976Z,102290.03
2022-11-13T13:08:48.833Z,102279.94
2022-11-13T13:11:42.425Z,102280.81
2022-11-13T13:15:02.062Z,102271.56
2022-11-13T13:17:44.487Z,102265.31
2022-11-13T13:20:35.219Z,102259.09
2022-11-13T13:23:30.409Z,102264.53
2022-11-13T13:26:19.859Z,102261.84
2022-11-13T13:29:19.033Z,102264.66
2022-11-13T13:32:17.872Z,102258.09
2022-11-13T13:35:13.763Z,102256.53
2022-11-13T13:38:03.348Z,102263.69
2022-11-13T13:41:18.260Z,102265.16
2022-11-13T13:44:36.919Z,102265.50
2022-11-13T13:47:26.376Z,102264.34
2022-11-13T13:50:15.449Z,102256.91
2022-11-13T13:52:59.371Z,102250.78
2022-11-13T13:55:51.624Z,102239.94
2022-11-13T13:58:36.569Z,102237.34
2022-11-13T14:01:29.826Z,102234.84
2022-11-13T14:04:19.634Z,102234.72
2022-11-13T14:07:03.388Z,102237.91
2022-11-13T14:09:45.729Z,102236.31
2022-11-13T14:12:29.590Z,102244.09
2022-11-13T14:15:26.390Z,102246.78
2022-11-13T14:20:57.440Z,102246.00
2022-11-13T14:23:44.438Z,102241.97
2022-11-13T14:26:27.301Z,102233.22
2022-11-13T14:29:32.099Z,102239.09
2022-11-13T14:32:22.327Z,102231.22
2022-11-13T14:35:08.270Z,102235.63
2022-11-13T14:37:50.774Z,102232.84
2022-11-13T14:40:35.731Z,102234.09
2022-11-13T14:43:22.445Z,102232.16
2022-11-13T14:46:08.273Z,102228.13
2022-11-13T14:48:55.197Z,102233.50
2022-11-13T14:51:37.535Z,102221.41
2022-11-13T14:54:53.330Z,102226.78
2022-11-13T14:57:34.225Z,102220.03
2022-11-13T15:00:19.331Z,102220.16
2022-11-13T15:03:05.132Z,102223.69
2022-11-13T15:05:47.609Z,102221.06
2022-11-13T15:08:30.020Z,102219.81
2022-11-13T15:11:16.223Z,102216.25
2022-11-13T15:14:03.992Z,102212.56
2022-11-13T15:16:48.417Z,102213.53
2022-11-13T15:19:34.894Z,102219.50
2022-11-13T15:22:27.123Z,102219.03
2022-11-13T15:25:16.071Z,102207.91
2022-11-13T15:27:57.818Z,102207.97
2022-11-13T15:30:39.962Z,102201.59
2022-11-13T15:33:22.937Z,102206.25
2022-11-13T15:36:07.133Z,102210.50
2022-11-13T15:38:49.207Z,102207.91
2022-11-13T15:41:33.177Z,102206.84
2022-11-13T15:44:16.413Z,102206.59
2022-11-13T15:46:58.759Z,102208.34
2022-11-13T15:49:51.366Z,102195.97
2022-11-13T15:52:47.681Z,102210.16
2022-11-13T15:55:32.741Z,102205.81
2022-11-13T15:58:16.899Z,102205.38
2022-11-13T16:00:58.963Z,102203.28
2022-11-13T16:03:41.476Z,102206.94
2022-11-13T16:06:25.004Z,102202.16
2022-11-13T16:09:14.489Z,102199.31
2022-11-13T16:11:57.113Z,102210.69
2022-11-13T16:14:39.410Z,102206.06
2022-11-13T16:17:21.594Z,102199.19
2022-11-13T16:20:07.546Z,102201.69
2022-11-13T16:22:49.958Z,102199.72
2022-11-13T16:25:33.458Z,102197.94
2022-11-13T16:28:17.371Z,102198.81
2022-11-13T16:30:59.370Z,102194.63
2022-11-13T16:33:43.067Z,102192.66
2022-11-13T16:36:26.869Z,102185.84
2022-11-13T16:39:16.017Z,102192.41
2022-11-13T16:41:59.330Z,102181.00
2022-11-13T16:44:42.515Z,102180.91
2022-11-13T16:47:27.259Z,102191.31
2022-11-13T16:50:15.820Z,102187.63
2022-11-13T16:52:58.252Z,102194.88
2022-11-13T16:55:40.638Z,102178.88
2022-11-13T16:58:23.905Z,102189.59
2022-11-13T17:01:06.969Z,102186.69
2022-11-13T17:03:49.714Z,102194.03
2022-11-13T17:06:33.517Z,102187.25
2022-11-13T17:09:15.926Z,102184.72
2022-11-13T17:11:57.741Z,102179.19
2022-11-13T17:14:41.587Z,102178.25
2022-11-13T17:17:24.015Z,102171.00
2022-11-13T17:20:07.164Z,102168.00
2022-11-13T17:22:49.417Z,102169.16
2022-11-13T17:25:31.600Z,102170.22
2022-11-13T17:28:13.613Z,102176.03
2022-11-13T17:31:02.985Z,102170.59
2022-11-13T17:33:44.906Z,102160.66
2022-11-13T17:36:26.959Z,102171.09
2022-11-13T17:39:08.917Z,102160.63
2022-11-13T17:41:51.388Z,102169.75
2022-11-13T17:44:33.491Z,102170.75
2022-11-13T17:47:17.579Z,102175.97
2022-11-13T17:50:05.613Z,102163.81
2022-11-13T17:52:49.415Z,102169.03
2022-11-13T17:55:31.257Z,102166.75
2022-11-13T17:58:13.061Z,102164.94
2022-11-13T18:00:56.081Z,102162.31
2022-11-13T18:03:39.949Z,102154.75
2022-11-13T18:06:22.939Z,102170.69
2022-11-13T18:09:06.365Z,102157.22
2022-11-13T18:11:48.837Z,102157.13
2022-11-13T18:14:31.233Z,102158.00
2022-11-13T18:17:13.259Z,102160.44
2022-11-13T18:20:01.455Z,102162.47
2022-11-13T18:22:44.348Z,102160.53
2022-11-13T18:25:26.890Z,102165.81
2022-11-13T18:28:09.138Z,102153.28
2022-11-13T18:30:56.253Z,102159.97
2022-11-13T18:33:39.091Z,102153.53
2022-11-13T18:36:22.891Z,102151.53
2022-11-13T18:39:05.760Z,102153.00
2022-11-13T18:41:48.651Z,102156.81
2022-11-13T18:44:30.860Z,102161.78
2022-11-13T18:47:13.173Z,102158.41
2022-11-13T18:49:55.644Z,102153.97
2022-11-13T18:52:39.595Z,102160.81
2022-11-13T18:55:21.666Z,102167.84
2022-11-13T18:58:03.783Z,102156.03
2022-11-13T19:00:46.241Z,102161.44
2022-11-13T19:03:29.041Z,102158.47
2022-11-13T19:06:15.088Z,102148.63
2022-11-13T19:09:01.940Z,102146.00
2022-11-13T19:11:45.483Z,102149.88
2022-11-13T19:14:27.314Z,102143.41
2022-11-13T19:17:09.841Z,102143.41
2022-11-13T19:19:52.246Z,102139.84
2022-11-13T19:22:34.610Z,102151.44
2022-11-13T19:25:18.475Z,102153.59
2022-11-13T19:28:00.800Z,102153.81
2022-11-13T19:30:47.571Z,102156.25
2022-11-13T19:33:30.107Z,102155.88
2022-11-13T19:36:15.456Z,102156.88
2022-11-13T19:38:58.936Z,102160.91
2022-11-13T19:41:42.442Z,102157.47
2022-11-13T19:44:24.548Z,102150.88
2022-11-13T19:47:06.669Z,102152.84
2022-11-13T19:49:48.615Z,102156.44
2022-11-13T19:52:30.994Z,102148.72
2022-11-13T19:55:13.286Z,102147.06
2022-11-13T19:57:57.138Z,102140.34
2022-11-13T20:00:39.022Z,102132.34
2022-11-13T20:03:21.250Z,102137.72
2022-11-13T20:06:03.708Z,102139.56
2022-11-13T20:08:46.074Z,102135.25
2022-11-13T20:11:28.222Z,102127.63
2022-11-13T20:14:13.612Z,102123.69
2022-11-13T20:16:55.822Z,102132.13
2022-11-13T20:19:37.805Z,102127.50
2022-11-13T20:22:19.625Z,102124.31
2022-11-13T20:25:01.747Z,102128.59
2022-11-13T20:27:47.353Z,102126.78
2022-11-13T20:30:30.992Z,102132.13
2022-11-13T20:33:16.145Z,102127.88
2022-11-13T20:36:00.915Z,102107.38
2022-11-13T20:38:44.563Z,102120.66
2022-11-13T20:41:27.453Z,102109.16
2022-11-13T20:44:09.755Z,102106.78
2022-11-13T20:46:52.973Z,102119.09
2022-11-13T20:49:35.296Z,102122.09
2022-11-13T20:52:17.470Z,102118.75
2022-11-13T20:54:59.658Z,102125.53
2022-11-13T20:57:42.136Z,102118.75
2022-11-13T21:00:24.473Z,102115.63
2022-11-13T21:03:07.869Z,102110.09
2022-11-13T21:05:49.964Z,102121.84
2022-11-13T21:08:32.099Z,102104.88
2022-11-13T21:11:19.043Z,102103.84
2022-11-13T21:14:01.564Z,102106.66
2022-11-13T21:16:43.859Z,102114.31
2022-11-13T21:19:27.648Z,102119.09
2022-11-13T21:22:09.724Z,102110.13
2022-11-13T21:24:51.753Z,102113.16
2022-11-13T21:27:33.757Z,102107.28
2022-11-13T21:30:16.586Z,102113.56
2022-11-13T21:33:00.277Z,102108.41
2022-11-13T21:35:44.112Z,102112.25
2022-11-13T21:38:26.415Z,102102.81
2022-11-13T21:41:24.599Z,102102.41
2022-11-13T21:44:10.527Z,102100.59
2022-11-13T21:46:52.355Z,102094.94
2022-11-13T21:49:34.211Z,102101.91
2022-11-13T21:52:18.228Z,102098.28
2022-11-13T21:55:00.609Z,102098.53
2022-11-13T21:57:42.689Z,102096.88
2022-11-13T22:00:24.622Z,102083.31
2022-11-13T22:03:07.012Z,102095.69
2022-11-13T22:05:50.096Z,102090.22
2022-11-13T22:08:33.733Z,102087.88
2022-11-13T22:11:16.060Z,102089.81
2022-11-13T22:13:58.623Z,102100.13
2022-11-13T22:16:46.212Z,102085.59
2022-11-13T22:19:35.984Z,102078.59
2022-11-13T22:22:19.126Z,102072.72
2022-11-13T22:25:02.792Z,102073.22
2022-11-13T22:27:45.553Z,102070.19
2022-11-13T22:30:27.714Z,102061.72
2022-11-13T22:33:11.126Z,102057.75
2022-11-13T22:35:54.218Z,102054.94
2022-11-13T22:38:36.897Z,102061.03
2022-11-13T22:41:24.293Z,102043.84
2022-11-13T22:44:09.447Z,102049.09
2022-11-13T22:46:51.741Z,102045.53
2022-11-13T22:49:34.362Z,102050.66
2022-11-13T22:52:16.850Z,102046.44
2022-11-13T22:54:59.122Z,102036.84
2022-11-13T22:57:43.101Z,102033.13
2022-11-13T23:00:25.448Z,102028.16
2022-11-13T23:03:07.565Z,102018.44
2022-11-13T23:05:49.695Z,102027.09
2022-11-13T23:08:32.695Z,102014.63
2022-11-13T23:11:17.541Z,102015.56
2022-11-13T23:14:03.669Z,102015.66
2022-11-13T23:16:49.317Z,102011.44
2022-11-13T23:19:32.156Z,102010.47
2022-11-13T23:22:18.068Z,102007.13
2022-11-13T23:25:00.883Z,102003.72
2022-11-13T23:27:43.884Z,102016.13
2022-11-13T23:30:28.235Z,102005.88
2022-11-13T23:33:10.564Z,102008.63
2022-11-13T23:35:53.311Z,102007.13
2022-11-13T23:38:35.442Z,102007.88
2022-11-13T23:41:17.630Z,102003.91
2022-11-13T23:44:09.588Z,101992.56
2022-11-13T23:46:54.223Z,101999.03
2022-11-13T23:49:37.364Z,102001.94
2022-11-13T23:52:19.942Z,101997.75
2022-11-13T23:55:02.521Z,102002.50
2022-11-13T23:57:44.687Z,101992.03
